createdAt,value
2019-02-21T00:02:20.250Z,12.23
2019-02-21T00:04:49.619Z,12.60
2019-02-21T00:07:18.959Z,12.00
2019-02-21T00:09:48.335Z,13.37
2019-02-21T00:12:18.133Z,13.23
2019-02-21T00:14:47.805Z,12.40
2019-02-21T00:17:17.589Z,13.17
2019-02-21T00:19:47.321Z,12.43
2019-02-21T00:22:16.715Z,13.40
2019-02-21T00:24:46.019Z,13.13
2019-02-21T00:27:15.407Z,13.00
2019-02-21T00:29:44.737Z,12.80
2019-02-21T00:32:14.115Z,12.73
2019-02-21T00:34:43.837Z,12.80
2019-02-21T00:37:13.507Z,12.90
2019-02-21T00:39:42.759Z,13.40
2019-02-21T00:42:12.134Z,12.57
2019-02-21T00:44:41.430Z,13.87
2019-02-21T00:47:10.758Z,13.63
2019-02-21T00:49:40.072Z,12.93
2019-02-21T00:52:09.422Z,12.97
2019-02-21T00:54:38.796Z,13.90
2019-02-21T00:57:08.185Z,13.50
2019-02-21T00:59:37.557Z,13.00
2019-02-21T01:02:06.986Z,13.57
2019-02-21T01:04:36.380Z,13.57
2019-02-21T01:07:05.779Z,13.40
2019-02-21T01:09:35.081Z,14.03
2019-02-21T01:12:04.485Z,13.87
2019-02-21T01:14:33.831Z,13.23
2019-02-21T01:17:03.054Z,13.53
2019-02-21T01:19:32.450Z,13.73
2019-02-21T01:22:01.738Z,14.30
2019-02-21T01:24:31.118Z,14.10
2019-02-21T01:27:00.537Z,13.53
2019-02-21T01:29:29.905Z,14.30
2019-02-21T01:31:59.208Z,13.83
2019-02-21T01:34:28.566Z,14.00
2019-02-21T01:36:57.946Z,14.90
2019-02-21T01:39:33.440Z,13.90
2019-02-21T01:42:02.737Z,13.97
2019-02-21T01:44:32.131Z,13.83
2019-02-21T01:47:01.527Z,13.57
2019-02-21T01:49:30.863Z,14.90
2019-02-21T01:52:00.104Z,13.97
2019-02-21T01:54:29.450Z,15.57
2019-02-21T01:56:58.818Z,14.90
2019-02-21T01:59:28.223Z,15.03
2019-02-21T02:01:57.595Z,15.63
2019-02-21T02:04:29.609Z,14.43
2019-02-21T02:06:58.956Z,16.30
2019-02-21T02:09:28.248Z,15.83
2019-02-21T02:11:57.674Z,16.00
2019-02-21T02:14:26.978Z,17.50
2019-02-21T02:16:56.318Z,15.73
2019-02-21T02:19:25.741Z,16.17
2019-02-21T02:21:55.090Z,16.37
2019-02-21T02:24:24.360Z,16.33
2019-02-21T02:26:53.706Z,15.90
2019-02-21T02:29:23.000Z,15.20
2019-02-21T02:31:52.321Z,17.30
2019-02-21T02:34:21.675Z,16.77
2019-02-21T02:36:51.016Z,16.43
2019-02-21T02:39:20.322Z,16.93
2019-02-21T02:41:49.692Z,16.80
2019-02-21T02:44:19.065Z,18.33
2019-02-21T02:46:48.431Z,17.43
2019-02-21T02:49:17.818Z,17.57
2019-02-21T02:51:47.222Z,19.20
2019-02-21T02:54:16.566Z,18.30
2019-02-21T02:56:45.888Z,17.70
2019-02-21T02:59:15.276Z,18.77
2019-02-21T03:01:44.654Z,18.50
2019-02-21T03:04:14.090Z,19.93
2019-02-21T03:06:43.524Z,19.57
2019-02-21T03:09:13.126Z,19.23
2019-02-21T03:11:42.441Z,19.53
2019-02-21T03:14:11.805Z,20.47
2019-02-21T03:16:41.172Z,19.30
2019-02-21T03:19:10.577Z,19.73
2019-02-21T03:24:30.263Z,20.97
2019-02-21T03:26:59.662Z,20.83
2019-02-21T03:29:28.963Z,21.10
2019-02-21T03:31:58.385Z,20.70
2019-02-21T03:34:27.714Z,21.93
2019-02-21T03:36:57.145Z,21.17
2019-02-21T03:39:26.546Z,20.97
2019-02-21T03:41:56.519Z,21.33
2019-02-21T03:44:25.881Z,22.27
2019-02-21T03:46:55.256Z,21.53
2019-02-21T03:49:24.546Z,21.63
2019-02-21T03:51:53.928Z,20.93
2019-02-21T03:54:23.278Z,20.33
2019-02-21T03:56:52.517Z,21.67
2019-02-21T03:59:21.881Z,21.43
2019-02-21T04:01:51.173Z,21.70
2019-02-21T04:04:20.392Z,22.37
2019-02-21T04:06:49.823Z,21.17
2019-02-21T04:09:19.107Z,19.57
2019-02-21T04:11:48.495Z,22.80
2019-02-21T04:14:20.705Z,21.53
2019-02-21T04:16:49.144Z,22.10
2019-02-21T04:19:18.512Z,22.40
2019-02-21T04:21:47.903Z,22.50
2019-02-21T04:24:17.294Z,22.73
2019-02-21T04:26:46.677Z,22.60
2019-02-21T04:29:15.997Z,22.27
2019-02-21T04:31:45.400Z,22.43
2019-02-21T04:34:14.680Z,23.00
2019-02-21T04:36:44.060Z,23.10
2019-02-21T04:39:13.366Z,22.70
2019-02-21T04:41:42.745Z,22.90
2019-02-21T04:44:11.980Z,22.57
2019-02-21T04:46:41.339Z,23.07
2019-02-21T04:49:10.731Z,23.53
2019-02-21T04:51:40.073Z,23.37
2019-02-21T04:54:09.319Z,22.73
2019-02-21T04:56:38.720Z,23.57
2019-02-21T04:59:08.003Z,23.37
2019-02-21T05:01:40.142Z,27.70
2019-02-21T05:04:08.438Z,25.17
2019-02-21T05:06:37.735Z,25.43
2019-02-21T05:09:07.601Z,26.47
2019-02-21T05:11:37.085Z,22.93
2019-02-21T05:14:06.452Z,25.77
2019-02-21T05:16:35.856Z,24.77
2019-02-21T05:19:05.253Z,24.00
2019-02-21T05:21:34.722Z,24.07
2019-02-21T05:24:04.092Z,23.77
2019-02-21T05:26:38.738Z,23.00
2019-02-21T05:29:10.081Z,24.40
2019-02-21T05:32:01.169Z,24.37
2019-02-21T05:34:48.109Z,24.50
2019-02-21T05:37:54.790Z,24.43
2019-02-21T05:40:42.142Z,23.47
2019-02-21T05:43:31.385Z,24.03
2019-02-21T05:46:22.588Z,23.27
2019-02-21T05:49:03.534Z,23.20
2019-02-21T05:51:40.579Z,24.87
2019-02-21T05:54:21.370Z,23.60
2019-02-21T05:57:18.797Z,23.97
2019-02-21T06:00:10.179Z,24.90
2019-02-21T06:02:54.575Z,25.70
2019-02-21T06:05:38.518Z,23.87
2019-02-21T06:08:32.741Z,24.30
2019-02-21T06:11:30.160Z,24.17
2019-02-21T06:14:26.048Z,23.47
2019-02-21T06:17:17.389Z,25.80
2019-02-21T06:20:14.665Z,24.93
2019-02-21T06:22:58.987Z,27.27
2019-02-21T06:25:50.525Z,27.27
2019-02-21T06:28:22.559Z,26.90
2019-02-21T06:33:52.624Z,28.13
2019-02-21T06:36:21.971Z,27.90
2019-02-21T06:38:51.247Z,27.60
2019-02-21T06:41:20.647Z,28.43
2019-02-21T06:43:52.562Z,28.00
2019-02-21T06:46:21.256Z,28.07
2019-02-21T06:48:51.613Z,27.97
2019-02-21T06:51:21.058Z,28.47
2019-02-21T06:53:53.003Z,29.57
2019-02-21T06:56:21.479Z,28.97
2019-02-21T06:58:50.875Z,30.07
2019-02-21T07:01:28.176Z,30.40
2019-02-21T07:03:51.279Z,30.00
2019-02-21T07:06:31.139Z,30.57
2019-02-21T07:08:54.073Z,31.67
2019-02-21T07:11:25.127Z,33.60
2019-02-21T07:13:53.699Z,32.83
2019-02-21T07:16:23.080Z,32.97
2019-02-21T07:18:52.663Z,34.93
2019-02-21T07:21:22.005Z,35.87
2019-02-21T07:23:51.382Z,36.80
2019-02-21T07:26:21.304Z,37.13
2019-02-21T07:28:51.064Z,36.50
2019-02-21T07:31:28.918Z,35.43
2019-02-21T07:33:51.473Z,36.50
2019-02-21T07:36:20.899Z,36.57
2019-02-21T07:38:50.281Z,37.77
2019-02-21T07:41:19.696Z,37.13
2019-02-21T07:43:48.946Z,37.00
2019-02-21T07:46:18.350Z,37.33
2019-02-21T07:48:47.733Z,37.33
2019-02-21T07:51:17.097Z,37.57
2019-02-21T07:53:46.552Z,38.80
2019-02-21T07:56:15.916Z,38.73
2019-02-21T07:58:45.286Z,38.70
2019-02-21T08:01:17.269Z,37.80
2019-02-21T08:03:48.281Z,38.73
2019-02-21T08:06:16.780Z,36.53
2019-02-21T08:08:46.112Z,38.23
2019-02-21T08:11:15.515Z,37.37
2019-02-21T08:13:44.894Z,36.77
2019-02-21T08:16:14.218Z,37.33
2019-02-21T08:18:43.618Z,36.87
2019-02-21T08:21:12.845Z,37.30
2019-02-21T08:23:50.073Z,37.27
2019-02-21T08:26:13.244Z,38.73
2019-02-21T08:28:42.581Z,35.60
2019-02-21T08:31:11.965Z,37.13
2019-02-21T08:33:58.512Z,38.30
2019-02-21T08:36:24.335Z,36.67
2019-02-21T08:38:53.717Z,35.53
2019-02-21T08:41:25.650Z,37.00
2019-02-21T08:43:54.112Z,36.97
2019-02-21T08:46:23.481Z,37.90
2019-02-21T08:48:52.794Z,36.97
2019-02-21T08:51:22.229Z,36.00
2019-02-21T08:53:51.582Z,37.13
2019-02-21T08:56:21.079Z,36.77
2019-02-21T08:58:50.348Z,36.73
2019-02-21T09:01:19.980Z,37.03
2019-02-21T09:03:49.339Z,37.67
2019-02-21T09:06:18.744Z,36.13
2019-02-21T09:08:48.228Z,37.73
2019-02-21T09:11:19.659Z,35.47
2019-02-21T09:13:48.567Z,35.87
2019-02-21T09:16:18.010Z,35.30
2019-02-21T09:18:47.448Z,37.70
2019-02-21T09:21:16.726Z,39.07
2019-02-21T09:23:46.155Z,37.93
2019-02-21T09:26:15.618Z,39.30
2019-02-21T09:28:44.885Z,36.70
2019-02-21T09:31:14.319Z,37.53
2019-02-21T09:33:43.893Z,39.63
2019-02-21T09:36:13.533Z,35.90
2019-02-21T09:38:42.915Z,35.30
2019-02-21T09:41:12.366Z,36.73
2019-02-21T09:43:41.719Z,35.47
2019-02-21T09:46:11.188Z,36.63
2019-02-21T09:48:40.592Z,34.70
2019-02-21T09:51:09.974Z,35.93
2019-02-21T09:53:39.460Z,36.17
2019-02-21T09:56:09.169Z,35.80
2019-02-21T09:58:38.585Z,35.10
2019-02-21T10:01:07.974Z,34.60
2019-02-21T10:03:37.293Z,34.80
2019-02-21T10:06:08.321Z,33.50
2019-02-21T10:08:37.891Z,33.67
2019-02-21T10:11:07.282Z,35.07
2019-02-21T10:13:36.570Z,33.30
2019-02-21T10:16:05.957Z,33.83
2019-02-21T10:18:35.343Z,33.20
2019-02-21T10:21:04.655Z,31.80
2019-02-21T10:23:34.021Z,32.80
2019-02-21T10:26:03.394Z,32.27
2019-02-21T10:28:32.829Z,32.40
2019-02-21T10:31:02.140Z,30.97
2019-02-21T10:33:31.594Z,31.07
2019-02-21T10:36:01.417Z,29.77
2019-02-21T10:38:30.917Z,28.43
2019-02-21T10:41:00.217Z,28.57
2019-02-21T10:43:29.573Z,29.30
2019-02-21T10:45:58.964Z,28.63
2019-02-21T10:48:28.242Z,30.40
2019-02-21T10:50:57.556Z,30.73
2019-02-21T10:53:26.864Z,28.60
2019-02-21T10:55:56.245Z,29.83
2019-02-21T10:58:25.755Z,28.13
2019-02-21T11:00:55.245Z,29.27
2019-02-21T11:03:24.665Z,28.77
2019-02-21T11:05:56.599Z,27.17
2019-02-21T11:08:26.079Z,27.70
2019-02-21T11:10:55.516Z,29.33
2019-02-21T11:13:24.892Z,28.77
2019-02-21T11:15:54.297Z,27.60
2019-02-21T11:18:23.727Z,27.97
2019-02-21T11:20:53.192Z,26.47
2019-02-21T11:23:22.595Z,25.93
2019-02-21T11:25:52.024Z,27.70
2019-02-21T11:28:21.380Z,28.33
2019-02-21T11:30:50.814Z,25.53
2019-02-21T11:33:20.171Z,26.03
2019-02-21T11:35:51.114Z,23.40
2019-02-21T11:38:20.488Z,22.47
2019-02-21T11:40:49.869Z,23.07
2019-02-21T11:43:19.139Z,25.03
2019-02-21T11:45:53.992Z,23.93
2019-02-21T11:48:19.587Z,24.07
2019-02-21T11:50:48.927Z,25.00
2019-02-21T11:53:18.371Z,25.03
2019-02-21T11:55:47.804Z,25.60
2019-02-21T11:58:17.208Z,25.40
2019-02-21T12:00:46.506Z,27.13
2019-02-21T12:03:15.831Z,25.70
2019-02-21T12:05:45.214Z,27.60
2019-02-21T12:08:14.582Z,28.17
2019-02-21T12:10:44.016Z,28.23
2019-02-21T12:13:13.409Z,29.30
2019-02-21T12:15:42.828Z,30.50
2019-02-21T12:18:12.250Z,28.87
2019-02-21T12:20:41.631Z,28.33
2019-02-21T12:23:10.909Z,29.17
2019-02-21T12:25:41.430Z,30.37
2019-02-21T12:28:10.825Z,29.40
2019-02-21T12:30:40.207Z,28.57
2019-02-21T12:33:09.630Z,29.17
2019-02-21T12:35:38.931Z,28.90
2019-02-21T12:38:08.276Z,28.47
2019-02-21T12:40:37.659Z,29.90
2019-02-21T12:43:07.213Z,29.63
2019-02-21T12:45:36.664Z,29.67
2019-02-21T12:48:06.070Z,29.83
2019-02-21T12:50:43.843Z,29.10
2019-02-21T12:53:06.542Z,29.43
2019-02-21T12:55:35.924Z,30.43
2019-02-21T12:58:05.576Z,30.03
2019-02-21T13:00:36.655Z,29.47
2019-02-21T13:03:06.249Z,29.37
2019-02-21T13:05:41.158Z,28.93
2019-02-21T13:08:06.693Z,31.03
2019-02-21T13:10:36.113Z,30.07
2019-02-21T13:13:05.837Z,29.33
2019-02-21T13:15:35.187Z,27.93
2019-02-21T13:18:15.034Z,28.17
2019-02-21T13:20:35.697Z,25.73
2019-02-21T13:23:06.322Z,25.00
2019-02-21T13:25:35.721Z,25.20
2019-02-21T13:28:05.040Z,26.10
2019-02-21T13:30:34.472Z,24.37
2019-02-21T13:33:03.893Z,21.73
2019-02-21T13:35:33.344Z,22.50
2019-02-21T13:38:02.803Z,22.63
2019-02-21T13:40:32.266Z,21.80
2019-02-21T13:43:01.683Z,21.43
2019-02-21T13:45:31.084Z,22.63
2019-02-21T13:48:00.484Z,21.40
2019-02-21T13:50:29.818Z,20.43
2019-02-21T13:52:59.310Z,20.43
2019-02-21T13:55:28.616Z,19.53
2019-02-21T13:57:57.963Z,19.97
2019-02-21T14:00:27.399Z,20.30
2019-02-21T14:02:56.776Z,19.93
2019-02-21T14:05:26.241Z,20.93
2019-02-21T14:07:55.507Z,21.03
2019-02-21T14:10:24.797Z,21.57
2019-02-21T14:12:54.175Z,21.50
2019-02-21T14:15:24.759Z,20.50
2019-02-21T14:17:54.141Z,22.53
2019-02-21T14:20:23.464Z,22.37
2019-02-21T14:22:52.831Z,22.50
2019-02-21T14:25:22.236Z,23.63
2019-02-21T14:27:51.666Z,23.10
2019-02-21T14:30:21.088Z,20.67
2019-02-21T14:32:50.478Z,20.80
2019-02-21T14:35:19.940Z,19.73
2019-02-21T14:37:49.309Z,19.43
2019-02-21T14:40:18.647Z,20.90
2019-02-21T14:42:48.067Z,20.20
2019-02-21T14:45:18.157Z,19.77
2019-02-21T14:47:47.668Z,20.27
2019-02-21T14:50:17.541Z,20.43
2019-02-21T14:52:46.900Z,19.77
2019-02-21T14:55:16.343Z,20.77
2019-02-21T14:57:45.640Z,21.40
2019-02-21T15:00:17.737Z,20.60
2019-02-21T15:02:47.400Z,21.40
2019-02-21T15:05:16.872Z,22.43
2019-02-21T15:07:46.342Z,21.43
2019-02-21T15:10:18.375Z,21.70
2019-02-21T15:12:47.859Z,22.47
2019-02-21T15:15:18.056Z,24.53
2019-02-21T15:17:47.824Z,18.50
2019-02-21T15:20:17.764Z,13.70
2019-02-21T15:22:47.122Z,11.67
2019-02-21T15:25:16.454Z,11.43
2019-02-21T15:27:45.780Z,11.23
2019-02-21T15:30:17.159Z,11.20
2019-02-21T15:32:46.671Z,12.10
2019-02-21T15:35:19.185Z,15.47
2019-02-21T15:37:47.570Z,10.67
2019-02-21T15:40:16.921Z,11.10
2019-02-21T15:42:46.476Z,13.10
2019-02-21T15:45:22.779Z,12.97
2019-02-21T15:47:49.346Z,12.27
2019-02-21T15:50:19.927Z,11.23
2019-02-21T15:52:49.702Z,12.87
2019-02-21T15:55:19.102Z,11.80
2019-02-21T15:58:07.572Z,13.03
2019-02-21T16:00:36.978Z,12.60
2019-02-21T16:03:06.475Z,12.90
2019-02-21T16:05:36.499Z,12.43
2019-02-21T16:08:06.228Z,12.47
2019-02-21T16:10:35.969Z,15.43
2019-02-21T16:13:05.640Z,28.57
2019-02-21T16:15:35.102Z,14.10
2019-02-21T16:18:04.611Z,14.03
2019-02-21T16:20:33.917Z,12.47
2019-02-21T16:23:03.301Z,13.23
2019-02-21T16:25:32.826Z,13.43
2019-02-21T16:28:02.443Z,13.43
2019-02-21T16:30:31.839Z,13.03
2019-02-21T16:33:01.356Z,13.57
2019-02-21T16:35:30.746Z,15.57
2019-02-21T16:38:00.481Z,19.47
2019-02-21T16:40:29.954Z,17.07
2019-02-21T16:42:59.257Z,11.67
2019-02-21T16:45:42.152Z,12.23
2019-02-21T16:47:59.658Z,12.00
2019-02-21T16:50:30.242Z,12.07
2019-02-21T16:52:59.746Z,10.40
2019-02-21T16:55:29.098Z,10.40
2019-02-21T16:57:58.432Z,11.33
2019-02-21T17:00:42.192Z,13.07
2019-02-21T17:02:59.134Z,12.40
2019-02-21T17:05:28.599Z,13.20
2019-02-21T17:07:57.976Z,12.93
2019-02-21T17:10:27.354Z,13.73
2019-02-21T17:12:56.804Z,13.73
2019-02-21T17:15:26.100Z,13.63
2019-02-21T17:17:55.529Z,14.20
2019-02-21T17:20:24.966Z,20.70
2019-02-21T17:22:54.331Z,23.50
2019-02-21T17:25:23.651Z,31.77
2019-02-21T17:27:52.967Z,22.13
2019-02-21T17:30:22.976Z,19.80
2019-02-21T17:32:52.364Z,21.63
2019-02-21T17:35:21.786Z,26.47
2019-02-21T17:37:52.066Z,25.43
2019-02-21T17:40:21.684Z,23.60
2019-02-21T17:42:51.079Z,24.80
2019-02-21T17:45:20.526Z,31.27
2019-02-21T17:47:49.890Z,25.13
2019-02-21T17:50:19.296Z,24.00
2019-02-21T17:52:48.705Z,22.73
2019-02-21T17:55:18.231Z,23.27
2019-02-21T17:57:47.591Z,25.83
2019-02-21T18:00:21.016Z,25.63
2019-02-21T18:02:50.572Z,23.60
2019-02-21T18:05:19.991Z,25.23
2019-02-21T18:07:49.309Z,24.43
2019-02-21T18:10:18.697Z,24.60
2019-02-21T18:12:48.025Z,24.33
2019-02-21T18:15:17.481Z,23.80
2019-02-21T18:17:46.892Z,25.90
2019-02-21T18:20:16.553Z,26.20
2019-02-21T18:22:45.967Z,26.80
2019-02-21T18:25:21.926Z,29.80
2019-02-21T18:27:51.272Z,30.20
2019-02-21T18:30:20.645Z,27.67
2019-02-21T18:32:50.034Z,27.53
2019-02-21T18:35:19.495Z,26.60
2019-02-21T18:37:48.925Z,27.77
2019-02-21T18:40:20.639Z,26.63
2019-02-21T18:42:49.472Z,27.57
2019-02-21T18:45:18.927Z,27.23
2019-02-21T18:47:48.354Z,28.17
2019-02-21T18:50:17.766Z,26.87
2019-02-21T18:52:47.106Z,27.30
2019-02-21T18:55:18.265Z,28.27
2019-02-21T18:57:47.632Z,28.33
2019-02-21T19:00:18.903Z,29.77
2019-02-21T19:02:48.340Z,29.33
2019-02-21T19:05:17.798Z,31.20
2019-02-21T19:07:55.793Z,31.13
2019-02-21T19:10:18.254Z,43.67
2019-02-21T19:12:47.707Z,41.47
2019-02-21T19:15:17.997Z,42.50
2019-02-21T19:17:47.400Z,41.60
2019-02-21T19:20:16.869Z,32.93
2019-02-21T19:22:46.418Z,34.53
2019-02-21T19:25:15.834Z,33.17
2019-02-21T19:27:45.163Z,33.23
2019-02-21T19:30:29.761Z,59.83
2019-02-21T19:32:59.172Z,69.03
2019-02-21T19:35:28.585Z,39.27
2019-02-21T19:37:58.011Z,37.00
2019-02-21T19:40:28.026Z,35.43
2019-02-21T19:42:57.340Z,44.47
2019-02-21T19:45:26.744Z,46.87
2019-02-21T19:47:56.146Z,40.67
2019-02-21T19:50:26.042Z,38.00
2019-02-21T19:52:55.492Z,40.20
2019-02-21T19:55:24.803Z,37.87
2019-02-21T19:57:54.184Z,39.67
2019-02-21T20:00:24.629Z,38.37
2019-02-21T20:02:54.477Z,38.60
2019-02-21T20:05:23.985Z,40.10
2019-02-21T20:07:53.429Z,39.17
2019-02-21T20:10:22.774Z,38.00
2019-02-21T20:12:52.175Z,39.87
2019-02-21T20:15:21.549Z,38.90
2019-02-21T20:17:50.989Z,39.63
2019-02-21T20:20:20.401Z,40.57
2019-02-21T20:22:49.691Z,41.00
2019-02-21T20:25:19.109Z,41.00
2019-02-21T20:27:48.468Z,52.17
2019-02-21T20:30:17.858Z,44.47
2019-02-21T20:32:47.162Z,45.60
2019-02-21T20:35:16.545Z,44.53
2019-02-21T20:37:45.953Z,43.37
2019-02-21T20:40:15.359Z,44.50
2019-02-21T20:42:44.752Z,48.93
2019-02-21T20:45:14.128Z,44.43
2019-02-21T20:47:43.523Z,48.50
2019-02-21T20:50:13.051Z,45.80
2019-02-21T20:52:42.461Z,44.17
2019-02-21T20:55:12.071Z,46.63
2019-02-21T20:57:41.569Z,44.07
2019-02-21T21:00:12.387Z,48.87
2019-02-21T21:02:41.836Z,43.83
2019-02-21T21:05:11.571Z,54.30
2019-02-21T21:07:40.936Z,52.53
2019-02-21T21:10:12.564Z,43.40
2019-02-21T21:12:41.974Z,43.13
2019-02-21T21:15:12.053Z,43.67
2019-02-21T21:17:41.432Z,44.50
2019-02-21T21:20:16.581Z,44.20
2019-02-21T21:22:42.876Z,44.00
2019-02-21T21:25:13.559Z,44.27
2019-02-21T21:27:42.941Z,43.47
2019-02-21T21:30:13.760Z,44.33
2019-02-21T21:32:43.092Z,46.83
2019-02-21T21:35:12.538Z,45.27
2019-02-21T21:37:41.937Z,44.13
2019-02-21T21:40:12.715Z,46.30
2019-02-21T21:42:42.142Z,48.60
2019-02-21T21:45:13.865Z,49.20
2019-02-21T21:47:43.368Z,55.90
2019-02-21T21:50:14.040Z,55.60
2019-02-21T21:52:43.419Z,48.13
2019-02-21T21:55:12.847Z,50.10
2019-02-21T21:57:42.324Z,51.67
2019-02-21T22:00:14.108Z,49.80
2019-02-21T22:02:43.485Z,53.27
2019-02-21T22:05:12.862Z,55.10
2019-02-21T22:07:42.364Z,59.00
2019-02-21T22:10:12.302Z,50.23
2019-02-21T22:12:41.704Z,48.83
2019-02-21T22:15:11.652Z,49.70
2019-02-21T22:17:42.187Z,48.87
2019-02-21T22:20:11.837Z,47.90
2019-02-21T22:22:41.212Z,47.57
2019-02-21T22:25:11.572Z,46.77
2019-02-21T22:27:40.992Z,47.90
2019-02-21T22:30:12.379Z,47.47
2019-02-21T22:32:41.783Z,47.17
2019-02-21T22:35:11.155Z,45.40
2019-02-21T22:37:40.527Z,51.00
2019-02-21T22:40:11.443Z,49.20
2019-02-21T22:42:40.816Z,46.43
2019-02-21T22:45:10.347Z,54.10
2019-02-21T22:47:39.754Z,51.27
2019-02-21T22:50:11.039Z,52.43
2019-02-21T22:52:40.398Z,47.77
2019-02-21T22:55:12.876Z,46.70
2019-02-21T22:57:42.278Z,46.20
2019-02-21T23:00:42.429Z,47.33
2019-02-21T23:03:11.952Z,44.60
2019-02-21T23:05:57.627Z,46.03
2019-02-21T23:08:51.175Z,47.93
2019-02-21T23:11:20.579Z,47.10
2019-02-21T23:13:50.950Z,46.17
2019-02-21T23:16:20.323Z,45.27
2019-02-21T23:18:49.921Z,46.07
2019-02-21T23:21:19.303Z,46.60
2019-02-21T23:23:48.683Z,45.33
2019-02-21T23:26:18.058Z,44.40
2019-02-21T23:28:47.416Z,45.33
2019-02-21T23:31:16.802Z,44.03
2019-02-21T23:33:49.570Z,46.77
2019-02-21T23:36:19.011Z,48.23
2019-02-21T23:38:48.394Z,45.80
2019-02-21T23:41:17.782Z,49.27
2019-02-21T23:43:47.457Z,44.13
2019-02-21T23:46:16.913Z,45.70
2019-02-21T23:48:46.289Z,51.00
2019-02-21T23:51:15.673Z,46.63
2019-02-21T23:53:45.044Z,45.43
2019-02-21T23:56:14.410Z,47.07
2019-02-21T23:58:43.770Z,47.17
